sensor_id;sensor_type;location;lat;lon;timestamp;temperature;humidity
11107;DHT22;5607;48.302;14.294;2022-11-23T00:00:00;4.70;1.00
11107;DHT22;5607;48.302;14.294;2022-11-23T00:02:46;4.70;1.00
11107;DHT22;5607;48.302;14.294;2022-11-23T00:05:32;4.70;1.00
11107;DHT22;5607;48.302;14.294;2022-11-23T00:08:19;4.80;8.50
11107;DHT22;5607;48.302;14.294;2022-11-23T00:11:05;4.90;2.90
11107;DHT22;5607;48.302;14.294;2022-11-23T00:13:52;4.90;2.10
11107;DHT22;5607;48.302;14.294;2022-11-23T00:16:38;5.00;1.00
11107;DHT22;5607;48.302;14.294;2022-11-23T00:19:24;5.00;1.30
11107;DHT22;5607;48.302;14.294;2022-11-23T00:22:11;5.00;1.00
11107;DHT22;5607;48.302;14.294;2022-11-23T00:24:57;4.70;1.00
11107;DHT22;5607;48.302;14.294;2022-11-23T00:27:43;4.50;1.00
11107;DHT22;5607;48.302;14.294;2022-11-23T00:30:29;4.60;8.10
11107;DHT22;5607;48.302;14.294;2022-11-23T00:33:16;4.80;14.10
11107;DHT22;5607;48.302;14.294;2022-11-23T00:36:12;4.80;11.70
11107;DHT22;5607;48.302;14.294;2022-11-23T00:38:58;4.70;3.90
11107;DHT22;5607;48.302;14.294;2022-11-23T00:41:45;4.80;3.10
11107;DHT22;5607;48.302;14.294;2022-11-23T00:44:31;4.80;5.40
11107;DHT22;5607;48.302;14.294;2022-11-23T00:47:17;4.90;5.90
11107;DHT22;5607;48.302;14.294;2022-11-23T00:50:03;4.90;1.00
11107;DHT22;5607;48.302;14.294;2022-11-23T00:52:50;4.90;1.00
11107;DHT22;5607;48.302;14.294;2022-11-23T00:55:36;4.90;1.00
11107;DHT22;5607;48.302;14.294;2022-11-23T00:58:22;4.90;1.00
11107;DHT22;5607;48.302;14.294;2022-11-23T01:01:10;4.90;5.40
11107;DHT22;5607;48.302;14.294;2022-11-23T01:10:44;4.80;1.10
11107;DHT22;5607;48.302;14.294;2022-11-23T01:13:30;4.80;6.20
11107;DHT22;5607;48.302;14.294;2022-11-23T01:16:18;4.80;8.60
11107;DHT22;5607;48.302;14.294;2022-11-23T01:19:10;5.00;15.60
11107;DHT22;5607;48.302;14.294;2022-11-23T01:21:57;5.10;15.30
11107;DHT22;5607;48.302;14.294;2022-11-23T01:24:43;5.00;7.40
11107;DHT22;5607;48.302;14.294;2022-11-23T01:27:29;4.90;1.70
11107;DHT22;5607;48.302;14.294;2022-11-23T01:30:16;4.90;3.90
11107;DHT22;5607;48.302;14.294;2022-11-23T01:33:02;5.00;8.80
11107;DHT22;5607;48.302;14.294;2022-11-23T01:35:48;5.00;9.60
11107;DHT22;5607;48.302;14.294;2022-11-23T01:38:35;5.00;9.70
11107;DHT22;5607;48.302;14.294;2022-11-23T01:41:22;5.10;7.20
11107;DHT22;5607;48.302;14.294;2022-11-23T01:47:24;5.10;1.00
11107;DHT22;5607;48.302;14.294;2022-11-23T01:50:11;5.00;1.00
11107;DHT22;5607;48.302;14.294;2022-11-23T01:52:58;5.00;2.70
11107;DHT22;5607;48.302;14.294;2022-11-23T01:55:45;5.00;4.70
11107;DHT22;5607;48.302;14.294;2022-11-23T01:58:34;4.90;10.10
11107;DHT22;5607;48.302;14.294;2022-11-23T02:01:24;5.00;13.50
11107;DHT22;5607;48.302;14.294;2022-11-23T02:04:12;5.00;16.50
11107;DHT22;5607;48.302;14.294;2022-11-23T02:07:00;5.00;15.00
11107;DHT22;5607;48.302;14.294;2022-11-23T02:09:47;5.00;17.10
11107;DHT22;5607;48.302;14.294;2022-11-23T02:12:34;4.90;19.00
11107;DHT22;5607;48.302;14.294;2022-11-23T02:15:20;4.90;25.10
11107;DHT22;5607;48.302;14.294;2022-11-23T02:18:12;4.90;33.40
11107;DHT22;5607;48.302;14.294;2022-11-23T02:21:00;4.90;24.40
11107;DHT22;5607;48.302;14.294;2022-11-23T02:26:39;4.80;32.60
11107;DHT22;5607;48.302;14.294;2022-11-23T02:29:25;4.90;28.40
11107;DHT22;5607;48.302;14.294;2022-11-23T02:32:17;4.80;30.70
11107;DHT22;5607;48.302;14.294;2022-11-23T02:35:04;4.80;37.20
11107;DHT22;5607;48.302;14.294;2022-11-23T02:37:50;4.90;39.40
11107;DHT22;5607;48.302;14.294;2022-11-23T02:40:37;4.90;35.00
11107;DHT22;5607;48.302;14.294;2022-11-23T02:43:23;4.90;32.70
11107;DHT22;5607;48.302;14.294;2022-11-23T02:46:09;4.90;33.90
11107;DHT22;5607;48.302;14.294;2022-11-23T02:48:56;5.00;38.70
11107;DHT22;5607;48.302;14.294;2022-11-23T02:51:42;5.00;26.70
11107;DHT22;5607;48.302;14.294;2022-11-23T02:54:29;4.90;20.90
11107;DHT22;5607;48.302;14.294;2022-11-23T02:57:15;4.90;28.40
11107;DHT22;5607;48.302;14.294;2022-11-23T03:00:02;4.90;35.30
11107;DHT22;5607;48.302;14.294;2022-11-23T03:02:48;5.00;27.30
11107;DHT22;5607;48.302;14.294;2022-11-23T03:05:34;4.90;26.00
11107;DHT22;5607;48.302;14.294;2022-11-23T03:08:21;5.00;25.60
11107;DHT22;5607;48.302;14.294;2022-11-23T03:11:07;5.00;22.20
11107;DHT22;5607;48.302;14.294;2022-11-23T03:13:53;4.90;18.70
11107;DHT22;5607;48.302;14.294;2022-11-23T03:16:40;5.10;26.00
11107;DHT22;5607;48.302;14.294;2022-11-23T03:19:26;5.20;23.00
11107;DHT22;5607;48.302;14.294;2022-11-23T03:22:13;5.10;14.50
11107;DHT22;5607;48.302;14.294;2022-11-23T03:24:59;5.10;8.70
11107;DHT22;5607;48.302;14.294;2022-11-23T03:27:45;5.20;11.60
11107;DHT22;5607;48.302;14.294;2022-11-23T03:30:32;5.10;17.00
11107;DHT22;5607;48.302;14.294;2022-11-23T03:33:18;5.00;7.50
11107;DHT22;5607;48.302;14.294;2022-11-23T03:36:05;4.90;8.30
11107;DHT22;5607;48.302;14.294;2022-11-23T03:38:51;5.00;17.30
11107;DHT22;5607;48.302;14.294;2022-11-23T03:41:37;5.00;23.10
11107;DHT22;5607;48.302;14.294;2022-11-23T03:47:29;5.00;16.30
11107;DHT22;5607;48.302;14.294;2022-11-23T03:50:15;5.00;19.50
11107;DHT22;5607;48.302;14.294;2022-11-23T03:53:01;5.10;20.10
11107;DHT22;5607;48.302;14.294;2022-11-23T03:55:48;5.00;10.80
11107;DHT22;5607;48.302;14.294;2022-11-23T03:58:34;5.00;10.10
11107;DHT22;5607;48.302;14.294;2022-11-23T04:01:20;5.00;16.50
11107;DHT22;5607;48.302;14.294;2022-11-23T04:04:06;5.00;8.70
11107;DHT22;5607;48.302;14.294;2022-11-23T04:06:52;5.00;11.80
11107;DHT22;5607;48.302;14.294;2022-11-23T04:09:39;5.00;14.60
11107;DHT22;5607;48.302;14.294;2022-11-23T04:12:25;5.00;10.00
11107;DHT22;5607;48.302;14.294;2022-11-23T04:15:11;4.90;4.80
11107;DHT22;5607;48.302;14.294;2022-11-23T04:17:57;4.80;7.80
11107;DHT22;5607;48.302;14.294;2022-11-23T04:20:44;4.70;22.60
11107;DHT22;5607;48.302;14.294;2022-11-23T04:23:30;4.70;24.60
11107;DHT22;5607;48.302;14.294;2022-11-23T04:26:16;4.70;35.70
11107;DHT22;5607;48.302;14.294;2022-11-23T04:29:02;4.70;26.90
11107;DHT22;5607;48.302;14.294;2022-11-23T04:31:49;4.70;37.20
11107;DHT22;5607;48.302;14.294;2022-11-23T04:34:35;4.70;38.80
11107;DHT22;5607;48.302;14.294;2022-11-23T04:37:21;4.80;37.60
11107;DHT22;5607;48.302;14.294;2022-11-23T04:40:08;4.90;38.50
11107;DHT22;5607;48.302;14.294;2022-11-23T04:42:54;4.90;36.20
11107;DHT22;5607;48.302;14.294;2022-11-23T04:45:40;5.00;38.90
11107;DHT22;5607;48.302;14.294;2022-11-23T04:48:27;5.10;36.10
11107;DHT22;5607;48.302;14.294;2022-11-23T04:51:13;5.10;32.40
11107;DHT22;5607;48.302;14.294;2022-11-23T04:53:59;5.10;31.20
11107;DHT22;5607;48.302;14.294;2022-11-23T04:56:45;5.20;36.50
11107;DHT22;5607;48.302;14.294;2022-11-23T04:59:32;5.10;24.00
11107;DHT22;5607;48.302;14.294;2022-11-23T05:02:18;5.10;22.70
11107;DHT22;5607;48.302;14.294;2022-11-23T05:05:04;5.00;34.20
11107;DHT22;5607;48.302;14.294;2022-11-23T05:07:50;5.00;43.20
11107;DHT22;5607;48.302;14.294;2022-11-23T05:10:37;5.00;48.10
11107;DHT22;5607;48.302;14.294;2022-11-23T05:13:23;4.90;49.10
11107;DHT22;5607;48.302;14.294;2022-11-23T05:16:09;4.90;48.20
11107;DHT22;5607;48.302;14.294;2022-11-23T05:18:56;5.00;54.60
11107;DHT22;5607;48.302;14.294;2022-11-23T05:21:42;5.00;54.70
11107;DHT22;5607;48.302;14.294;2022-11-23T05:24:28;5.20;54.70
11107;DHT22;5607;48.302;14.294;2022-11-23T05:27:14;5.20;45.10
11107;DHT22;5607;48.302;14.294;2022-11-23T05:30:01;5.20;41.90
11107;DHT22;5607;48.302;14.294;2022-11-23T05:32:47;5.20;30.40
11107;DHT22;5607;48.302;14.294;2022-11-23T05:35:34;5.20;24.60
11107;DHT22;5607;48.302;14.294;2022-11-23T05:38:20;5.10;20.30
11107;DHT22;5607;48.302;14.294;2022-11-23T05:41:06;5.10;25.70
11107;DHT22;5607;48.302;14.294;2022-11-23T05:43:53;5.10;29.60
11107;DHT22;5607;48.302;14.294;2022-11-23T05:46:39;5.20;39.00
11107;DHT22;5607;48.302;14.294;2022-11-23T05:49:25;5.30;31.10
11107;DHT22;5607;48.302;14.294;2022-11-23T05:52:12;5.30;24.10
11107;DHT22;5607;48.302;14.294;2022-11-23T05:54:58;5.30;23.80
11107;DHT22;5607;48.302;14.294;2022-11-23T05:57:44;5.30;27.00
11107;DHT22;5607;48.302;14.294;2022-11-23T06:00:30;5.40;29.20
11107;DHT22;5607;48.302;14.294;2022-11-23T06:03:17;5.40;27.10
11107;DHT22;5607;48.302;14.294;2022-11-23T06:06:03;5.40;21.90
11107;DHT22;5607;48.302;14.294;2022-11-23T06:08:49;5.50;20.10
11107;DHT22;5607;48.302;14.294;2022-11-23T06:11:36;5.40;16.50
11107;DHT22;5607;48.302;14.294;2022-11-23T06:14:22;5.50;19.20
11107;DHT22;5607;48.302;14.294;2022-11-23T06:17:08;5.40;23.80
11107;DHT22;5607;48.302;14.294;2022-11-23T06:19:55;5.40;25.10
11107;DHT22;5607;48.302;14.294;2022-11-23T06:22:41;5.40;31.10
11107;DHT22;5607;48.302;14.294;2022-11-23T06:25:27;5.40;27.60
11107;DHT22;5607;48.302;14.294;2022-11-23T06:28:13;5.40;26.90
11107;DHT22;5607;48.302;14.294;2022-11-23T06:31:01;5.40;23.40
11107;DHT22;5607;48.302;14.294;2022-11-23T06:33:47;5.30;19.50
11107;DHT22;5607;48.302;14.294;2022-11-23T06:36:33;5.20;28.10
11107;DHT22;5607;48.302;14.294;2022-11-23T06:39:19;5.30;43.40
11107;DHT22;5607;48.302;14.294;2022-11-23T06:42:06;5.40;47.00
11107;DHT22;5607;48.302;14.294;2022-11-23T06:44:52;5.50;31.80
11107;DHT22;5607;48.302;14.294;2022-11-23T06:47:38;5.50;7.00
11107;DHT22;5607;48.302;14.294;2022-11-23T06:50:24;5.50;4.00
11107;DHT22;5607;48.302;14.294;2022-11-23T06:53:10;5.40;8.10
11107;DHT22;5607;48.302;14.294;2022-11-23T06:56:00;5.50;14.80
11107;DHT22;5607;48.302;14.294;2022-11-23T06:58:46;5.40;11.90
11107;DHT22;5607;48.302;14.294;2022-11-23T07:01:33;5.40;22.00
11107;DHT22;5607;48.302;14.294;2022-11-23T07:04:19;5.40;20.50
11107;DHT22;5607;48.302;14.294;2022-11-23T07:07:08;5.40;17.50
11107;DHT22;5607;48.302;14.294;2022-11-23T07:09:55;5.50;13.20
11107;DHT22;5607;48.302;14.294;2022-11-23T07:12:41;5.50;12.50
11107;DHT22;5607;48.302;14.294;2022-11-23T07:15:27;5.50;21.30
11107;DHT22;5607;48.302;14.294;2022-11-23T07:18:13;5.60;29.20
11107;DHT22;5607;48.302;14.294;2022-11-23T07:21:00;5.60;36.80
11107;DHT22;5607;48.302;14.294;2022-11-23T07:23:46;5.40;22.40
11107;DHT22;5607;48.302;14.294;2022-11-23T07:26:32;5.50;28.70
11107;DHT22;5607;48.302;14.294;2022-11-23T07:29:18;5.60;18.40
11107;DHT22;5607;48.302;14.294;2022-11-23T07:32:04;5.50;11.50
11107;DHT22;5607;48.302;14.294;2022-11-23T07:34:52;5.50;6.70
11107;DHT22;5607;48.302;14.294;2022-11-23T07:37:38;5.60;14.90
11107;DHT22;5607;48.302;14.294;2022-11-23T07:40:24;5.70;7.90
11107;DHT22;5607;48.302;14.294;2022-11-23T07:43:11;5.70;5.60
11107;DHT22;5607;48.302;14.294;2022-11-23T07:45:57;5.80;6.60
11107;DHT22;5607;48.302;14.294;2022-11-23T07:48:43;6.00;6.30
11107;DHT22;5607;48.302;14.294;2022-11-23T07:51:30;6.10;1.00
11107;DHT22;5607;48.302;14.294;2022-11-23T07:54:16;6.10;1.00
11107;DHT22;5607;48.302;14.294;2022-11-23T07:57:02;6.10;1.00
11107;DHT22;5607;48.302;14.294;2022-11-23T07:59:49;6.20;1.00
11107;DHT22;5607;48.302;14.294;2022-11-23T08:02:35;6.20;1.00
11107;DHT22;5607;48.302;14.294;2022-11-23T08:05:21;6.10;1.00
11107;DHT22;5607;48.302;14.294;2022-11-23T08:08:07;6.20;1.00
11107;DHT22;5607;48.302;14.294;2022-11-23T08:10:54;6.20;1.00
11107;DHT22;5607;48.302;14.294;2022-11-23T08:13:40;6.30;1.00
11107;DHT22;5607;48.302;14.294;2022-11-23T08:16:26;6.40;1.00
11107;DHT22;5607;48.302;14.294;2022-11-23T08:19:12;6.30;1.00
11107;DHT22;5607;48.302;14.294;2022-11-23T08:21:59;6.30;1.00
11107;DHT22;5607;48.302;14.294;2022-11-23T08:24:45;6.30;1.00
11107;DHT22;5607;48.302;14.294;2022-11-23T08:27:32;6.30;1.00
11107;DHT22;5607;48.302;14.294;2022-11-23T08:30:19;6.40;1.00
11107;DHT22;5607;48.302;14.294;2022-11-23T08:33:05;6.40;1.00
11107;DHT22;5607;48.302;14.294;2022-11-23T08:35:52;6.60;1.00
11107;DHT22;5607;48.302;14.294;2022-11-23T08:38:38;6.70;1.00
11107;DHT22;5607;48.302;14.294;2022-11-23T08:41:24;6.80;1.00
11107;DHT22;5607;48.302;14.294;2022-11-23T08:44:10;6.90;1.00
11107;DHT22;5607;48.302;14.294;2022-11-23T08:46:57;6.90;1.00
11107;DHT22;5607;48.302;14.294;2022-11-23T08:49:43;7.00;1.00
11107;DHT22;5607;48.302;14.294;2022-11-23T08:52:29;6.90;1.00
11107;DHT22;5607;48.302;14.294;2022-11-23T08:55:16;6.80;1.00
11107;DHT22;5607;48.302;14.294;2022-11-23T08:58:02;6.80;1.00
11107;DHT22;5607;48.302;14.294;2022-11-23T09:00:48;6.90;1.00
11107;DHT22;5607;48.302;14.294;2022-11-23T09:03:34;6.80;1.00
11107;DHT22;5607;48.302;14.294;2022-11-23T09:06:20;6.90;1.00
11107;DHT22;5607;48.302;14.294;2022-11-23T09:09:13;6.90;1.00
11107;DHT22;5607;48.302;14.294;2022-11-23T09:12:00;6.70;1.00
11107;DHT22;5607;48.302;14.294;2022-11-23T09:14:46;6.70;1.00
11107;DHT22;5607;48.302;14.294;2022-11-23T09:17:32;6.80;1.00
11107;DHT22;5607;48.302;14.294;2022-11-23T09:20:19;6.80;1.00
11107;DHT22;5607;48.302;14.294;2022-11-23T09:23:05;6.90;1.00
11107;DHT22;5607;48.302;14.294;2022-11-23T09:25:51;6.80;1.00
11107;DHT22;5607;48.302;14.294;2022-11-23T09:28:37;6.80;1.00
11107;DHT22;5607;48.302;14.294;2022-11-23T09:31:24;6.80;1.00
11107;DHT22;5607;48.302;14.294;2022-11-23T09:34:13;7.00;1.00
11107;DHT22;5607;48.302;14.294;2022-11-23T09:37:00;6.90;1.00
11107;DHT22;5607;48.302;14.294;2022-11-23T09:39:46;6.90;1.00
11107;DHT22;5607;48.302;14.294;2022-11-23T09:42:40;6.90;1.00
11107;DHT22;5607;48.302;14.294;2022-11-23T09:45:42;6.80;1.00
11107;DHT22;5607;48.302;14.294;2022-11-23T09:48:39;6.80;1.00
11107;DHT22;5607;48.302;14.294;2022-11-23T09:51:28;6.90;1.00
11107;DHT22;5607;48.302;14.294;2022-11-23T09:54:22;6.90;1.00
11107;DHT22;5607;48.302;14.294;2022-11-23T09:57:11;7.00;1.00
11107;DHT22;5607;48.302;14.294;2022-11-23T10:00:07;7.00;1.00
11107;DHT22;5607;48.302;14.294;2022-11-23T10:02:53;6.90;1.00
11107;DHT22;5607;48.302;14.294;2022-11-23T10:05:39;7.00;1.00
11107;DHT22;5607;48.302;14.294;2022-11-23T10:20:47;6.90;1.00
11107;DHT22;5607;48.302;14.294;2022-11-23T10:26:40;7.00;1.00
11107;DHT22;5607;48.302;14.294;2022-11-23T10:29:29;7.00;1.00
11107;DHT22;5607;48.302;14.294;2022-11-23T10:32:28;7.10;1.00
11107;DHT22;5607;48.302;14.294;2022-11-23T10:35:16;7.20;1.00
11107;DHT22;5607;48.302;14.294;2022-11-23T10:40:58;7.10;1.00
11107;DHT22;5607;48.302;14.294;2022-11-23T10:43:48;7.40;1.00
11107;DHT22;5607;48.302;14.294;2022-11-23T10:49:26;7.50;1.00
11107;DHT22;5607;48.302;14.294;2022-11-23T10:52:27;7.70;1.00
11107;DHT22;5607;48.302;14.294;2022-11-23T10:55:14;7.80;1.00
11107;DHT22;5607;48.302;14.294;2022-11-23T10:58:01;7.90;1.00
11107;DHT22;5607;48.302;14.294;2022-11-23T11:00:47;7.80;1.00
11107;DHT22;5607;48.302;14.294;2022-11-23T11:03:43;7.80;1.00
11107;DHT22;5607;48.302;14.294;2022-11-23T11:06:31;7.80;1.00
11107;DHT22;5607;48.302;14.294;2022-11-23T11:09:19;7.80;1.00
11107;DHT22;5607;48.302;14.294;2022-11-23T11:12:13;7.90;1.00
11107;DHT22;5607;48.302;14.294;2022-11-23T11:17:57;8.10;1.00
11107;DHT22;5607;48.302;14.294;2022-11-23T11:20:44;8.10;1.00
11107;DHT22;5607;48.302;14.294;2022-11-23T11:23:30;8.20;1.00
11107;DHT22;5607;48.302;14.294;2022-11-23T11:26:21;8.30;1.00
11107;DHT22;5607;48.302;14.294;2022-11-23T11:29:28;8.30;1.00
11107;DHT22;5607;48.302;14.294;2022-11-23T11:35:16;8.10;1.00
11107;DHT22;5607;48.302;14.294;2022-11-23T11:41:23;8.10;1.00
11107;DHT22;5607;48.302;14.294;2022-11-23T11:44:21;8.00;1.00
11107;DHT22;5607;48.302;14.294;2022-11-23T11:47:17;8.10;1.00
11107;DHT22;5607;48.302;14.294;2022-11-23T11:50:26;8.10;1.00
11107;DHT22;5607;48.302;14.294;2022-11-23T11:53:16;8.10;1.00
11107;DHT22;5607;48.302;14.294;2022-11-23T11:56:06;8.20;1.00
11107;DHT22;5607;48.302;14.294;2022-11-23T11:58:58;8.30;1.00
11107;DHT22;5607;48.302;14.294;2022-11-23T12:04:58;8.30;1.00
11107;DHT22;5607;48.302;14.294;2022-11-23T12:07:48;8.20;1.00
11107;DHT22;5607;48.302;14.294;2022-11-23T12:10:48;8.10;1.00
11107;DHT22;5607;48.302;14.294;2022-11-23T12:13:36;8.10;1.00
11107;DHT22;5607;48.302;14.294;2022-11-23T12:19:29;8.40;1.00
11107;DHT22;5607;48.302;14.294;2022-11-23T12:25:19;9.00;1.00
11107;DHT22;5607;48.302;14.294;2022-11-23T12:31:16;9.10;1.00
11107;DHT22;5607;48.302;14.294;2022-11-23T12:37:09;9.30;1.00
11107;DHT22;5607;48.302;14.294;2022-11-23T12:43:44;9.40;1.00
11107;DHT22;5607;48.302;14.294;2022-11-23T12:58:44;8.80;1.00
11107;DHT22;5607;48.302;14.294;2022-11-23T13:04:15;8.70;1.00
11107;DHT22;5607;48.302;14.294;2022-11-23T13:07:15;8.60;1.00
11107;DHT22;5607;48.302;14.294;2022-11-23T13:10:19;8.50;1.00
11107;DHT22;5607;48.302;14.294;2022-11-23T13:16:09;8.20;1.00
11107;DHT22;5607;48.302;14.294;2022-11-23T13:21:59;8.20;1.00
11107;DHT22;5607;48.302;14.294;2022-11-23T13:30:37;8.00;1.00
11107;DHT22;5607;48.302;14.294;2022-11-23T13:33:27;8.10;1.00
11107;DHT22;5607;48.302;14.294;2022-11-23T13:42:20;8.10;1.00
11107;DHT22;5607;48.302;14.294;2022-11-23T13:45:15;8.10;1.00
11107;DHT22;5607;48.302;14.294;2022-11-23T13:50:57;8.20;1.00
11107;DHT22;5607;48.302;14.294;2022-11-23T13:53:45;8.30;1.00
11107;DHT22;5607;48.302;14.294;2022-11-23T13:56:37;8.40;1.00
11107;DHT22;5607;48.302;14.294;2022-11-23T13:59:30;8.40;1.00
11107;DHT22;5607;48.302;14.294;2022-11-23T14:02:25;8.30;1.00
11107;DHT22;5607;48.302;14.294;2022-11-23T14:05:34;8.30;1.00
11107;DHT22;5607;48.302;14.294;2022-11-23T14:08:36;8.40;1.00
11107;DHT22;5607;48.302;14.294;2022-11-23T14:11:24;8.30;1.00
11107;DHT22;5607;48.302;14.294;2022-11-23T14:14:16;8.30;1.00
11107;DHT22;5607;48.302;14.294;2022-11-23T14:29:13;8.20;1.00
11107;DHT22;5607;48.302;14.294;2022-11-23T14:32:26;8.30;1.00
11107;DHT22;5607;48.302;14.294;2022-11-23T14:38:06;8.20;1.00
11107;DHT22;5607;48.302;14.294;2022-11-23T14:41:08;8.20;1.00
11107;DHT22;5607;48.302;14.294;2022-11-23T14:43:58;8.20;1.00
11107;DHT22;5607;48.302;14.294;2022-11-23T14:49:47;8.30;1.00
11107;DHT22;5607;48.302;14.294;2022-11-23T14:52:34;8.20;1.00
11107;DHT22;5607;48.302;14.294;2022-11-23T14:55:22;8.20;1.00
11107;DHT22;5607;48.302;14.294;2022-11-23T14:58:10;8.10;1.00
11107;DHT22;5607;48.302;14.294;2022-11-23T15:00:59;8.10;1.00
11107;DHT22;5607;48.302;14.294;2022-11-23T15:03:54;8.10;1.00
11107;DHT22;5607;48.302;14.294;2022-11-23T15:06:41;8.00;1.00
11107;DHT22;5607;48.302;14.294;2022-11-23T15:12:41;8.00;1.00
11107;DHT22;5607;48.302;14.294;2022-11-23T15:15:28;7.90;1.00
11107;DHT22;5607;48.302;14.294;2022-11-23T15:18:25;8.00;1.00
11107;DHT22;5607;48.302;14.294;2022-11-23T15:23:57;7.90;1.00
11107;DHT22;5607;48.302;14.294;2022-11-23T15:26:45;7.80;1.00
11107;DHT22;5607;48.302;14.294;2022-11-23T15:29:35;7.80;3.50
11107;DHT22;5607;48.302;14.294;2022-11-23T15:32:23;7.80;6.90
11107;DHT22;5607;48.302;14.294;2022-11-23T15:35:11;7.70;8.80
11107;DHT22;5607;48.302;14.294;2022-11-23T15:37:58;7.70;11.40
11107;DHT22;5607;48.302;14.294;2022-11-23T15:40:46;7.60;12.70
11107;DHT22;5607;48.302;14.294;2022-11-23T15:43:33;7.60;12.60
11107;DHT22;5607;48.302;14.294;2022-11-23T15:46:19;7.60;13.70
11107;DHT22;5607;48.302;14.294;2022-11-23T15:49:10;7.60;17.90
11107;DHT22;5607;48.302;14.294;2022-11-23T15:51:59;7.60;16.20
11107;DHT22;5607;48.302;14.294;2022-11-23T15:54:45;7.50;19.60
11107;DHT22;5607;48.302;14.294;2022-11-23T15:57:32;7.50;20.80
11107;DHT22;5607;48.302;14.294;2022-11-23T16:00:20;7.40;23.80
11107;DHT22;5607;48.302;14.294;2022-11-23T16:03:24;7.40;23.90
11107;DHT22;5607;48.302;14.294;2022-11-23T16:08:58;7.30;28.40
11107;DHT22;5607;48.302;14.294;2022-11-23T16:11:44;7.30;33.80
11107;DHT22;5607;48.302;14.294;2022-11-23T16:14:30;7.30;44.60
11107;DHT22;5607;48.302;14.294;2022-11-23T16:17:23;7.30;46.40
11107;DHT22;5607;48.302;14.294;2022-11-23T16:20:11;7.20;36.60
11107;DHT22;5607;48.302;14.294;2022-11-23T16:22:59;7.20;37.00
11107;DHT22;5607;48.302;14.294;2022-11-23T16:25:51;7.20;42.50
11107;DHT22;5607;48.302;14.294;2022-11-23T16:28:47;7.20;35.10
11107;DHT22;5607;48.302;14.294;2022-11-23T16:31:35;7.20;39.50
11107;DHT22;5607;48.302;14.294;2022-11-23T16:34:21;7.20;41.00
11107;DHT22;5607;48.302;14.294;2022-11-23T16:37:08;7.20;49.70
11107;DHT22;5607;48.302;14.294;2022-11-23T16:39:54;7.20;51.50
11107;DHT22;5607;48.302;14.294;2022-11-23T16:42:41;7.20;54.60
11107;DHT22;5607;48.302;14.294;2022-11-23T16:45:27;7.10;64.50
11107;DHT22;5607;48.302;14.294;2022-11-23T16:48:56;7.10;68.60
11107;DHT22;5607;48.302;14.294;2022-11-23T16:51:24;7.20;71.80
11107;DHT22;5607;48.302;14.294;2022-11-23T16:54:10;7.20;69.80
11107;DHT22;5607;48.302;14.294;2022-11-23T16:56:56;7.20;59.90
11107;DHT22;5607;48.302;14.294;2022-11-23T16:59:42;7.10;59.20
11107;DHT22;5607;48.302;14.294;2022-11-23T17:02:29;7.20;61.30
11107;DHT22;5607;48.302;14.294;2022-11-23T17:05:16;7.10;61.60
11107;DHT22;5607;48.302;14.294;2022-11-23T17:08:02;7.00;63.40
11107;DHT22;5607;48.302;14.294;2022-11-23T17:10:49;7.10;63.40
11107;DHT22;5607;48.302;14.294;2022-11-23T17:13:35;7.10;69.20
11107;DHT22;5607;48.302;14.294;2022-11-23T17:16:22;7.00;73.00
11107;DHT22;5607;48.302;14.294;2022-11-23T17:19:14;7.10;85.80
11107;DHT22;5607;48.302;14.294;2022-11-23T17:22:00;7.10;92.60
11107;DHT22;5607;48.302;14.294;2022-11-23T17:24:47;7.00;96.40
11107;DHT22;5607;48.302;14.294;2022-11-23T17:27:34;7.00;99.90
11107;DHT22;5607;48.302;14.294;2022-11-23T17:30:21;7.00;99.90
11107;DHT22;5607;48.302;14.294;2022-11-23T17:33:09;7.00;99.90
11107;DHT22;5607;48.302;14.294;2022-11-23T17:35:55;7.00;99.90
11107;DHT22;5607;48.302;14.294;2022-11-23T17:38:43;7.10;99.90
11107;DHT22;5607;48.302;14.294;2022-11-23T17:41:32;7.10;98.00
11107;DHT22;5607;48.302;14.294;2022-11-23T17:44:18;7.10;94.40
11107;DHT22;5607;48.302;14.294;2022-11-23T17:47:04;7.10;92.30
11107;DHT22;5607;48.302;14.294;2022-11-23T17:49:51;7.10;86.90
11107;DHT22;5607;48.302;14.294;2022-11-23T17:52:38;7.00;80.40
11107;DHT22;5607;48.302;14.294;2022-11-23T17:55:27;7.00;78.80
11107;DHT22;5607;48.302;14.294;2022-11-23T17:58:13;7.00;75.30
11107;DHT22;5607;48.302;14.294;2022-11-23T18:00:59;6.90;82.20
11107;DHT22;5607;48.302;14.294;2022-11-23T18:03:46;6.80;72.30
11107;DHT22;5607;48.302;14.294;2022-11-23T18:06:32;6.70;77.10
11107;DHT22;5607;48.302;14.294;2022-11-23T18:09:18;6.60;88.20
11107;DHT22;5607;48.302;14.294;2022-11-23T18:12:05;6.60;96.10
11107;DHT22;5607;48.302;14.294;2022-11-23T18:14:51;6.50;99.90
11107;DHT22;5607;48.302;14.294;2022-11-23T18:17:37;6.40;99.90
11107;DHT22;5607;48.302;14.294;2022-11-23T18:20:24;6.40;99.90
11107;DHT22;5607;48.302;14.294;2022-11-23T18:23:10;6.30;99.90
11107;DHT22;5607;48.302;14.294;2022-11-23T18:26:00;6.20;99.90
11107;DHT22;5607;48.302;14.294;2022-11-23T18:28:47;6.20;99.90
11107;DHT22;5607;48.302;14.294;2022-11-23T18:31:34;6.20;99.90
11107;DHT22;5607;48.302;14.294;2022-11-23T18:34:20;6.10;99.90
11107;DHT22;5607;48.302;14.294;2022-11-23T18:37:06;6.10;99.90
11107;DHT22;5607;48.302;14.294;2022-11-23T18:39:52;6.10;99.90
11107;DHT22;5607;48.302;14.294;2022-11-23T18:42:39;6.10;99.90
11107;DHT22;5607;48.302;14.294;2022-11-23T18:45:25;6.10;99.90
11107;DHT22;5607;48.302;14.294;2022-11-23T18:48:12;6.10;99.90
11107;DHT22;5607;48.302;14.294;2022-11-23T18:50:59;6.10;99.90
11107;DHT22;5607;48.302;14.294;2022-11-23T18:53:46;6.00;99.80
11107;DHT22;5607;48.302;14.294;2022-11-23T18:56:32;6.00;99.10
11107;DHT22;5607;48.302;14.294;2022-11-23T18:59:18;5.90;86.20
11107;DHT22;5607;48.302;14.294;2022-11-23T19:02:07;5.80;57.60
11107;DHT22;5607;48.302;14.294;2022-11-23T19:04:53;5.80;47.90
11107;DHT22;5607;48.302;14.294;2022-11-23T19:07:39;5.80;47.60
11107;DHT22;5607;48.302;14.294;2022-11-23T19:10:26;5.70;42.60
11107;DHT22;5607;48.302;14.294;2022-11-23T19:13:12;5.70;56.30
11107;DHT22;5607;48.302;14.294;2022-11-23T19:15:58;5.70;66.30
11107;DHT22;5607;48.302;14.294;2022-11-23T19:18:44;5.70;66.10
11107;DHT22;5607;48.302;14.294;2022-11-23T19:21:31;5.70;43.80
11107;DHT22;5607;48.302;14.294;2022-11-23T19:24:18;5.70;41.80
11107;DHT22;5607;48.302;14.294;2022-11-23T19:27:04;5.70;47.10
11107;DHT22;5607;48.302;14.294;2022-11-23T19:29:50;5.70;51.20
11107;DHT22;5607;48.302;14.294;2022-11-23T19:32:36;5.70;44.60
11107;DHT22;5607;48.302;14.294;2022-11-23T19:35:23;5.80;45.20
11107;DHT22;5607;48.302;14.294;2022-11-23T19:38:09;5.80;42.00
11107;DHT22;5607;48.302;14.294;2022-11-23T19:40:58;5.80;47.80
11107;DHT22;5607;48.302;14.294;2022-11-23T19:43:44;5.70;44.20
11107;DHT22;5607;48.302;14.294;2022-11-23T19:46:30;5.70;49.20
11107;DHT22;5607;48.302;14.294;2022-11-23T19:49:17;5.70;50.60
11107;DHT22;5607;48.302;14.294;2022-11-23T19:52:03;5.80;50.00
11107;DHT22;5607;48.302;14.294;2022-11-23T19:54:50;5.80;52.30
11107;DHT22;5607;48.302;14.294;2022-11-23T19:57:36;5.70;28.50
11107;DHT22;5607;48.302;14.294;2022-11-23T20:00:22;5.70;32.10
11107;DHT22;5607;48.302;14.294;2022-11-23T20:03:09;5.60;46.60
11107;DHT22;5607;48.302;14.294;2022-11-23T20:05:55;5.60;51.00
11107;DHT22;5607;48.302;14.294;2022-11-23T20:08:42;5.60;61.70
11107;DHT22;5607;48.302;14.294;2022-11-23T20:11:29;5.70;67.40